createdAt,value
2023-02-23T00:01:02.677Z,100075.97
2023-02-23T00:03:05.737Z,100082.94
2023-02-23T00:05:09.338Z,100079.59
2023-02-23T00:07:13.602Z,100082.31
2023-02-23T00:09:23.397Z,100082.25
2023-02-23T00:11:28.026Z,100081.44
2023-02-23T00:13:31.867Z,100070.28
2023-02-23T00:15:34.743Z,100072.06
2023-02-23T00:17:41.168Z,100081.03
2023-02-23T00:19:44.506Z,100071.88
2023-02-23T00:21:47.404Z,100075.03
2023-02-23T00:23:53.116Z,100074.06
2023-02-23T00:25:59.618Z,100069.47
2023-02-23T00:28:02.601Z,100072.81
2023-02-23T00:30:07.261Z,100067.47
2023-02-23T00:32:10.294Z,100070.97
2023-02-23T00:34:15.094Z,100069.47
2023-02-23T00:36:18.192Z,100068.38
2023-02-23T00:38:21.145Z,100065.41
2023-02-23T00:40:25.664Z,100066.38
2023-02-23T00:42:32.326Z,100060.53
2023-02-23T00:44:40.595Z,100069.31
2023-02-23T00:46:44.211Z,100067.69
2023-02-23T00:48:47.471Z,100062.03
2023-02-23T00:50:59.315Z,100065.19
2023-02-23T00:53:02.205Z,100062.91
2023-02-23T00:55:06.539Z,100057.91
2023-02-23T00:57:11.090Z,100068.28
2023-02-23T00:59:14.899Z,100066.44
2023-02-23T01:01:18.613Z,100062.47
2023-02-23T01:03:21.729Z,100068.13
2023-02-23T01:05:24.950Z,100067.03
2023-02-23T01:07:30.115Z,100069.97
2023-02-23T01:09:34.122Z,100065.09
2023-02-23T01:11:37.215Z,100062.91
2023-02-23T01:13:43.047Z,100064.63
2023-02-23T01:15:48.260Z,100064.75
2023-02-23T01:17:51.376Z,100060.44
2023-02-23T01:19:55.222Z,100067.13
2023-02-23T01:21:58.199Z,100061.91
2023-02-23T01:24:02.234Z,100070.63
2023-02-23T01:26:05.427Z,100064.28
2023-02-23T01:28:09.069Z,100056.34
2023-02-23T01:30:16.655Z,100058.22
2023-02-23T01:32:20.306Z,100066.19
2023-02-23T01:34:23.219Z,100067.47
2023-02-23T01:36:28.972Z,100067.13
2023-02-23T01:38:31.980Z,100069.72
2023-02-23T01:40:37.118Z,100060.69
2023-02-23T01:42:42.174Z,100063.81
2023-02-23T01:45:21.031Z,100067.06
2023-02-23T01:47:26.826Z,100061.59
2023-02-23T01:49:31.128Z,100059.72
2023-02-23T01:51:37.526Z,100062.28
2023-02-23T01:53:44.347Z,100050.00
2023-02-23T01:55:50.906Z,100053.22
2023-02-23T01:57:56.976Z,100056.03
2023-02-23T02:00:00.213Z,100061.25
2023-02-23T02:02:05.485Z,100051.63
2023-02-23T02:04:09.353Z,100053.63
2023-02-23T02:06:15.246Z,100056.34
2023-02-23T02:08:19.183Z,100060.22
2023-02-23T02:10:39.632Z,100051.47
2023-02-23T02:12:44.870Z,100051.47
2023-02-23T02:14:48.045Z,100056.53
2023-02-23T02:17:06.875Z,100045.94
2023-02-23T02:19:33.661Z,100046.84
2023-02-23T02:22:27.057Z,100053.91
2023-02-23T02:25:04.485Z,100047.78
2023-02-23T02:27:26.852Z,100043.94
2023-02-23T02:29:52.341Z,100050.34
2023-02-23T02:32:19.816Z,100053.31
2023-02-23T02:34:49.815Z,100047.03
2023-02-23T02:37:19.086Z,100049.75
2023-02-23T02:39:34.990Z,100051.06
2023-02-23T02:41:51.415Z,100044.59
2023-02-23T02:43:59.426Z,100045.47
2023-02-23T02:46:06.235Z,100045.69
2023-02-23T02:48:18.392Z,100049.13
2023-02-23T02:50:25.571Z,100045.38
2023-02-23T02:52:32.418Z,100043.69
2023-02-23T02:54:39.630Z,100038.34
2023-02-23T02:56:44.561Z,100043.47
2023-02-23T02:58:50.956Z,100037.31
2023-02-23T03:01:12.098Z,100035.38
2023-02-23T03:03:47.388Z,100028.19
2023-02-23T03:06:09.471Z,100027.38
2023-02-23T03:08:37.753Z,100034.44
2023-02-23T03:11:04.971Z,100031.88
2023-02-23T03:13:34.347Z,100032.56
2023-02-23T03:16:00.149Z,100036.00
2023-02-23T03:18:31.882Z,100033.19
2023-02-23T03:21:00.973Z,100036.63
2023-02-23T03:23:28.388Z,100035.75
2023-02-23T03:25:54.099Z,100038.31
2023-02-23T03:28:18.319Z,100040.81
2023-02-23T03:30:42.236Z,100035.53
2023-02-23T03:33:07.879Z,100037.25
2023-02-23T03:35:33.164Z,100035.53
2023-02-23T03:37:58.106Z,100032.88
2023-02-23T03:40:24.609Z,100034.63
2023-02-23T03:42:50.598Z,100033.66
2023-02-23T03:45:11.727Z,100036.31
2023-02-23T03:47:34.282Z,100032.59
2023-02-23T03:49:57.710Z,100037.34
2023-02-23T03:52:22.882Z,100044.88
2023-02-23T03:54:46.550Z,100035.25
2023-02-23T03:57:09.659Z,100041.34
2023-02-23T03:59:33.062Z,100039.56
2023-02-23T04:01:54.367Z,100037.25
2023-02-23T04:04:16.337Z,100032.34
2023-02-23T04:06:37.810Z,100037.94
2023-02-23T04:08:58.809Z,100033.13
2023-02-23T04:11:24.201Z,100036.75
2023-02-23T04:13:27.404Z,100040.19
2023-02-23T04:15:33.170Z,100042.75
2023-02-23T04:17:36.559Z,100039.31
2023-02-23T04:19:39.579Z,100045.00
2023-02-23T04:21:42.582Z,100042.59
2023-02-23T04:23:45.682Z,100042.97
2023-02-23T04:25:49.221Z,100045.06
2023-02-23T04:27:53.347Z,100052.69
2023-02-23T04:29:57.673Z,100048.50
2023-02-23T04:32:02.041Z,100050.44
2023-02-23T04:34:05.632Z,100055.28
2023-02-23T04:36:09.049Z,100052.13
2023-02-23T04:38:12.073Z,100054.06
2023-02-23T04:40:15.425Z,100056.06
2023-02-23T04:42:19.363Z,100059.06
2023-02-23T04:44:22.577Z,100060.91
2023-02-23T04:46:25.910Z,100061.50
2023-02-23T04:48:30.214Z,100061.91
2023-02-23T04:50:33.292Z,100067.34
2023-02-23T04:52:37.618Z,100056.53
2023-02-23T04:54:41.816Z,100064.22
2023-02-23T04:56:44.992Z,100063.00
2023-02-23T04:58:47.970Z,100060.47
2023-02-23T05:00:51.477Z,100059.66
2023-02-23T05:02:54.860Z,100063.19
2023-02-23T05:05:00.754Z,100068.19
2023-02-23T05:07:04.644Z,100065.34
2023-02-23T05:09:07.794Z,100069.25
2023-02-23T05:11:11.218Z,100072.47
2023-02-23T05:13:14.125Z,100071.59
2023-02-23T05:15:17.530Z,100072.19
2023-02-23T05:17:20.506Z,100071.16
2023-02-23T05:19:24.038Z,100069.41
2023-02-23T05:21:28.587Z,100067.63
2023-02-23T05:23:32.069Z,100069.75
2023-02-23T05:25:35.752Z,100064.25
2023-02-23T05:27:38.747Z,100071.31
2023-02-23T05:29:41.722Z,100074.75
2023-02-23T05:31:44.870Z,100071.31
2023-02-23T05:33:48.000Z,100073.03
2023-02-23T05:35:51.222Z,100072.28
2023-02-23T05:37:55.562Z,100067.00
2023-02-23T05:39:58.564Z,100069.56
2023-02-23T05:42:01.459Z,100076.59
2023-02-23T05:44:04.925Z,100068.84
2023-02-23T05:46:08.542Z,100067.19
2023-02-23T05:48:14.058Z,100071.50
2023-02-23T05:50:18.558Z,100082.88
2023-02-23T05:52:21.593Z,100074.25
2023-02-23T05:54:25.951Z,100078.69
2023-02-23T05:56:29.140Z,100079.09
2023-02-23T05:58:32.562Z,100076.88
2023-02-23T06:00:35.516Z,100075.81
2023-02-23T06:02:38.581Z,100085.34
2023-02-23T06:04:41.983Z,100081.69
2023-02-23T06:06:45.450Z,100077.47
2023-02-23T06:08:48.461Z,100088.88
2023-02-23T06:10:52.945Z,100086.72
2023-02-23T06:12:56.237Z,100082.72
2023-02-23T06:14:59.214Z,100088.38
2023-02-23T06:17:02.269Z,100087.34
2023-02-23T06:19:05.278Z,100100.44
2023-02-23T06:21:08.660Z,100087.03
2023-02-23T06:23:12.138Z,100093.88
2023-02-23T06:25:15.214Z,100092.88
2023-02-23T06:27:19.572Z,100100.22
2023-02-23T06:29:23.815Z,100101.34
2023-02-23T06:31:26.824Z,100104.56
2023-02-23T06:33:29.952Z,100099.16
2023-02-23T06:35:33.308Z,100104.44
2023-02-23T06:37:36.745Z,100107.09
2023-02-23T06:39:40.215Z,100104.63
2023-02-23T06:41:43.680Z,100107.09
2023-02-23T06:43:48.284Z,100111.56
2023-02-23T06:45:52.478Z,100113.41
2023-02-23T06:47:56.986Z,100118.63
2023-02-23T06:50:02.029Z,100119.69
2023-02-23T06:52:05.138Z,100124.63
2023-02-23T06:54:08.284Z,100121.84
2023-02-23T06:56:12.779Z,100128.97
2023-02-23T06:58:15.901Z,100123.00
2023-02-23T07:00:21.504Z,100130.97
2023-02-23T07:02:24.837Z,100132.47
2023-02-23T07:04:27.809Z,100134.69
2023-02-23T07:06:31.467Z,100127.41
2023-02-23T07:08:34.958Z,100137.59
2023-02-23T07:10:37.921Z,100134.97
2023-02-23T07:12:41.055Z,100137.81
2023-02-23T07:14:44.250Z,100134.97
2023-02-23T07:16:48.952Z,100143.59
2023-02-23T07:18:52.390Z,100142.84
2023-02-23T07:20:55.456Z,100144.41
2023-02-23T07:22:58.436Z,100145.41
2023-02-23T07:25:01.758Z,100143.53
2023-02-23T07:27:04.932Z,100148.47
2023-02-23T07:29:08.028Z,100147.44
2023-02-23T07:31:11.083Z,100150.41
2023-02-23T07:33:15.516Z,100156.41
2023-02-23T07:35:18.671Z,100154.69
2023-02-23T07:37:21.706Z,100148.38
2023-02-23T07:39:25.634Z,100154.06
2023-02-23T07:41:28.689Z,100152.13
2023-02-23T07:43:32.020Z,100147.63
2023-02-23T07:45:35.350Z,100154.56
2023-02-23T07:47:39.530Z,100160.91
2023-02-23T07:49:43.868Z,100164.53
2023-02-23T07:51:47.379Z,100159.69
2023-02-23T07:53:50.798Z,100161.38
2023-02-23T07:56:18.499Z,100159.53
2023-02-23T07:58:21.461Z,100163.91
2023-02-23T08:00:27.519Z,100164.72
2023-02-23T08:02:32.231Z,100170.00
2023-02-23T08:04:35.327Z,100182.63
2023-02-23T08:06:39.791Z,100183.22
2023-02-23T08:08:43.086Z,100174.25
2023-02-23T08:10:46.149Z,100182.88
2023-02-23T08:12:49.506Z,100182.66
2023-02-23T08:14:52.819Z,100190.38
2023-02-23T08:16:55.772Z,100175.53
2023-02-23T08:18:59.906Z,100178.81
2023-02-23T08:21:05.351Z,100180.41
2023-02-23T08:23:11.593Z,100184.59
2023-02-23T08:25:14.620Z,100186.25
2023-02-23T08:27:17.611Z,100189.44
2023-02-23T08:29:21.462Z,100193.16
2023-02-23T08:31:25.401Z,100193.69
2023-02-23T08:33:28.567Z,100190.69
2023-02-23T08:35:32.146Z,100196.44
2023-02-23T08:37:35.469Z,100200.06
2023-02-23T08:39:40.488Z,100197.63
2023-02-23T08:41:44.494Z,100200.31
2023-02-23T08:43:47.572Z,100199.28
2023-02-23T08:45:50.467Z,100197.88
2023-02-23T08:47:55.745Z,100203.72
2023-02-23T08:49:58.858Z,100197.28
2023-02-23T08:52:01.855Z,100204.31
2023-02-23T08:54:04.892Z,100199.03
2023-02-23T08:56:10.037Z,100202.56
2023-02-23T08:58:15.314Z,100201.72
2023-02-23T09:00:19.249Z,100208.56
2023-02-23T09:02:24.043Z,100213.50
2023-02-23T09:04:32.665Z,100215.50
2023-02-23T09:06:36.262Z,100213.50
2023-02-23T09:08:39.441Z,100216.88
2023-02-23T09:10:43.861Z,100217.69
2023-02-23T09:12:48.465Z,100217.78
2023-02-23T09:14:53.916Z,100212.72
2023-02-23T09:16:56.877Z,100218.31
2023-02-23T09:19:01.436Z,100221.59
2023-02-23T09:21:08.703Z,100213.66
2023-02-23T09:23:11.992Z,100218.72
2023-02-23T09:25:18.267Z,100224.50
2023-02-23T09:27:21.295Z,100220.78
2023-02-23T09:29:25.635Z,100227.00
2023-02-23T09:31:29.227Z,100225.34
2023-02-23T09:33:32.234Z,100222.50
2023-02-23T09:35:36.319Z,100231.28
2023-02-23T09:37:39.390Z,100233.28
2023-02-23T09:39:43.600Z,100231.28
2023-02-23T09:42:00.323Z,100231.56
2023-02-23T09:44:05.054Z,100238.28
2023-02-23T09:46:19.926Z,100232.91
2023-02-23T09:48:24.909Z,100234.34
2023-02-23T09:50:29.867Z,100234.09
2023-02-23T09:52:40.297Z,100231.94
2023-02-23T09:54:44.297Z,100237.84
2023-02-23T09:56:48.752Z,100237.69
2023-02-23T09:58:51.787Z,100235.22
2023-02-23T10:01:18.110Z,100245.00
2023-02-23T10:03:26.026Z,100244.91
2023-02-23T10:05:31.752Z,100243.94
2023-02-23T10:07:44.765Z,100241.78
2023-02-23T10:10:01.890Z,100247.06
2023-02-23T10:12:08.852Z,100244.28
2023-02-23T10:14:25.483Z,100246.91
2023-02-23T10:16:39.501Z,100242.72
2023-02-23T10:18:50.136Z,100246.88
2023-02-23T10:21:00.190Z,100246.00
2023-02-23T10:23:06.924Z,100244.28
2023-02-23T10:25:13.892Z,100253.16
2023-02-23T10:27:18.653Z,100249.72
2023-02-23T10:29:24.819Z,100256.22
2023-02-23T10:31:32.442Z,100259.00
2023-02-23T10:33:38.449Z,100258.72
2023-02-23T10:35:43.086Z,100261.44
2023-02-23T10:37:46.767Z,100257.31
2023-02-23T10:39:51.533Z,100262.59
2023-02-23T10:41:54.870Z,100259.31
2023-02-23T10:44:02.592Z,100254.59
2023-02-23T10:46:21.158Z,100252.84
2023-02-23T10:48:26.359Z,100260.16
2023-02-23T10:50:30.679Z,100253.16
2023-02-23T10:52:41.710Z,100254.13
2023-02-23T10:54:47.961Z,100261.94
2023-02-23T10:56:51.440Z,100262.78
2023-02-23T10:58:55.756Z,100257.16
2023-02-23T11:01:10.676Z,100255.38
2023-02-23T11:03:29.384Z,100258.84
2023-02-23T11:05:38.725Z,100258.84
2023-02-23T11:07:45.174Z,100255.56
2023-02-23T11:09:49.534Z,100267.25
2023-02-23T11:12:00.124Z,100258.03
2023-02-23T11:14:18.046Z,100258.56
2023-02-23T11:16:23.157Z,100257.78
2023-02-23T11:18:26.483Z,100261.34
2023-02-23T11:20:33.531Z,100258.22
2023-02-23T11:22:38.150Z,100261.72
2023-02-23T11:24:42.765Z,100261.75
2023-02-23T11:26:47.362Z,100262.47
2023-02-23T11:28:52.888Z,100266.31
2023-02-23T11:30:55.979Z,100260.75
2023-02-23T11:33:02.569Z,100265.38
2023-02-23T11:35:29.077Z,100264.41
2023-02-23T11:37:33.464Z,100260.75
2023-02-23T11:39:38.670Z,100256.84
2023-02-23T11:41:43.466Z,100253.28
2023-02-23T11:43:49.356Z,100254.41
2023-02-23T11:45:53.604Z,100257.44
2023-02-23T11:47:59.361Z,100250.13
2023-02-23T11:50:04.951Z,100247.22
2023-02-23T11:52:14.052Z,100253.88
2023-02-23T11:54:22.787Z,100252.06
2023-02-23T11:56:26.928Z,100258.84
2023-02-23T11:58:37.109Z,100252.28
2023-02-23T12:00:40.124Z,100246.78
2023-02-23T12:02:51.638Z,100255.16
2023-02-23T12:05:02.675Z,100255.81
2023-02-23T12:07:25.373Z,100264.50
2023-02-23T12:09:32.724Z,100259.56
2023-02-23T12:11:39.517Z,100263.34
2023-02-23T12:13:47.555Z,100257.81
2023-02-23T12:15:54.824Z,100255.41
2023-02-23T12:18:00.294Z,100254.53
2023-02-23T12:20:06.886Z,100255.69
2023-02-23T12:22:13.873Z,100253.44
2023-02-23T12:24:20.718Z,100256.50
2023-02-23T12:26:26.618Z,100253.19
2023-02-23T12:28:34.934Z,100253.00
2023-02-23T12:30:45.330Z,100255.31
2023-02-23T12:32:53.818Z,100243.28
2023-02-23T12:35:00.842Z,100241.59
2023-02-23T12:37:15.335Z,100249.69
2023-02-23T12:39:24.476Z,100251.31
2023-02-23T12:41:35.380Z,100248.91
2023-02-23T12:43:51.524Z,100256.47
2023-02-23T12:45:59.330Z,100250.75
2023-02-23T12:48:07.887Z,100253.16
2023-02-23T12:50:13.360Z,100247.38
2023-02-23T12:52:20.235Z,100246.47
2023-02-23T12:54:23.165Z,100256.69
2023-02-23T12:56:35.607Z,100254.91
2023-02-23T12:58:42.411Z,100251.47
2023-02-23T13:00:52.561Z,100254.63
2023-02-23T13:03:27.857Z,100258.06
2023-02-23T13:05:34.051Z,100264.00
2023-02-23T13:07:42.810Z,100269.25
2023-02-23T13:09:53.104Z,100263.50
2023-02-23T13:12:15.134Z,100261.66
2023-02-23T13:14:22.747Z,100267.72
2023-02-23T13:16:30.866Z,100266.59
2023-02-23T13:18:38.922Z,100263.31
2023-02-23T13:20:45.403Z,100263.09
2023-02-23T13:22:51.644Z,100259.28
2023-02-23T13:24:58.171Z,100261.03
2023-02-23T13:27:04.358Z,100258.16
2023-02-23T13:29:12.084Z,100262.38
2023-02-23T13:31:24.342Z,100256.13
2023-02-23T13:33:41.870Z,100258.03
2023-02-23T13:35:48.667Z,100253.34
2023-02-23T13:37:56.791Z,100264.41
2023-02-23T13:40:06.780Z,100261.56
2023-02-23T13:42:20.088Z,100259.78
2023-02-23T13:44:28.462Z,100271.00
2023-02-23T13:46:41.050Z,100265.59
2023-02-23T13:48:57.498Z,100267.91
2023-02-23T13:51:06.388Z,100272.13
2023-02-23T13:53:29.239Z,100272.31
2023-02-23T13:55:50.351Z,100271.47
2023-02-23T13:57:53.603Z,100272.47
2023-02-23T13:59:56.745Z,100283.53
2023-02-23T14:02:01.789Z,100280.09
2023-02-23T14:04:07.921Z,100284.88
2023-02-23T14:06:16.360Z,100282.09
2023-02-23T14:08:24.146Z,100279.44
2023-02-23T14:10:29.078Z,100279.44
2023-02-23T14:12:35.824Z,100288.22
2023-02-23T14:14:44.354Z,100281.03
2023-02-23T14:17:11.981Z,100278.72
2023-02-23T14:19:39.967Z,100277.75
2023-02-23T14:21:49.881Z,100282.34
2023-02-23T14:23:54.012Z,100279.59
2023-02-23T14:26:16.486Z,100283.75
2023-02-23T14:28:30.918Z,100281.44
2023-02-23T14:30:49.766Z,100284.13
2023-02-23T14:32:53.889Z,100286.53
2023-02-23T14:34:57.999Z,100288.53
2023-02-23T14:37:06.474Z,100291.97
2023-02-23T14:39:12.004Z,100295.69
2023-02-23T14:41:14.985Z,100290.50
2023-02-23T14:43:43.162Z,100289.91
2023-02-23T14:45:47.573Z,100292.81
2023-02-23T14:47:52.486Z,100291.94
2023-02-23T14:49:57.669Z,100288.28
2023-02-23T14:52:08.255Z,100289.13
2023-02-23T14:54:23.011Z,100290.13
2023-02-23T14:56:35.450Z,100288.28
2023-02-23T14:58:41.822Z,100290.28
2023-02-23T15:00:45.975Z,100295.41
2023-02-23T15:02:57.327Z,100293.56
2023-02-23T15:05:00.320Z,100298.16
2023-02-23T15:07:03.606Z,100297.16
2023-02-23T15:09:08.537Z,100300.00
2023-02-23T15:11:13.892Z,100301.69
2023-02-23T15:13:28.966Z,100302.44
2023-02-23T15:15:32.088Z,100304.03
2023-02-23T15:17:35.679Z,100303.19
2023-02-23T15:19:39.734Z,100300.72
2023-02-23T15:21:42.725Z,100307.50
2023-02-23T15:23:46.428Z,100306.63
2023-02-23T15:25:51.351Z,100318.75
2023-02-23T15:27:56.024Z,100312.19
2023-02-23T15:29:58.927Z,100312.44
2023-02-23T15:32:16.191Z,100322.88
2023-02-23T15:34:21.011Z,100317.66
2023-02-23T15:36:29.167Z,100307.34
2023-02-23T15:38:43.558Z,100314.09
2023-02-23T15:40:47.929Z,100311.38
2023-02-23T15:42:54.180Z,100310.41
2023-02-23T15:45:00.387Z,100316.63
2023-02-23T15:47:05.866Z,100314.00
2023-02-23T15:49:12.802Z,100307.13
2023-02-23T15:51:23.796Z,100308.59
2023-02-23T15:53:30.789Z,100307.72
2023-02-23T15:55:35.924Z,100303.44
2023-02-23T15:57:47.148Z,100312.38
2023-02-23T15:59:54.609Z,100306.97
2023-02-23T16:02:00.356Z,100310.34
2023-02-23T16:04:07.202Z,100306.00
2023-02-23T16:06:23.135Z,100307.84
2023-02-23T16:08:27.223Z,100307.66
2023-02-23T16:10:30.731Z,100308.59
2023-02-23T16:12:36.029Z,100304.19
2023-02-23T16:14:45.141Z,100304.59
2023-02-23T16:17:01.418Z,100300.22
2023-02-23T16:19:13.440Z,100299.50
2023-02-23T16:21:19.062Z,100303.00
2023-02-23T16:23:33.212Z,100302.03
2023-02-23T16:25:36.989Z,100298.53
2023-02-23T16:27:40.124Z,100291.50
2023-02-23T16:29:43.457Z,100297.00
2023-02-23T16:31:49.471Z,100285.53
2023-02-23T16:33:56.979Z,100291.91
2023-02-23T16:36:19.142Z,100296.91
2023-02-23T16:38:25.846Z,100303.94
2023-02-23T16:40:29.196Z,100300.50
2023-02-23T16:42:34.259Z,100302.13
2023-02-23T16:44:43.278Z,100300.38
2023-02-23T16:47:01.515Z,100302.06
2023-02-23T16:49:10.123Z,100299.44
2023-02-23T16:51:16.159Z,100300.22
2023-02-23T16:53:19.298Z,100298.53
2023-02-23T16:55:26.427Z,100305.50
2023-02-23T16:57:31.737Z,100305.56
2023-02-23T16:59:35.147Z,100297.72
2023-02-23T17:01:38.149Z,100298.53
2023-02-23T17:06:08.322Z,100302.19
2023-02-23T17:08:11.318Z,100296.44
2023-02-23T17:10:24.980Z,100301.91
2023-02-23T17:12:28.174Z,100303.50
2023-02-23T17:14:32.547Z,100310.53
2023-02-23T17:16:35.734Z,100313.91
2023-02-23T17:18:42.905Z,100316.13
2023-02-23T17:20:48.177Z,100322.06
2023-02-23T17:22:51.358Z,100315.78
2023-02-23T17:24:54.418Z,100319.19
2023-02-23T17:26:57.352Z,100324.59
2023-02-23T17:29:00.418Z,100323.69
2023-02-23T17:31:04.208Z,100324.47
2023-02-23T17:33:08.082Z,100326.13
2023-02-23T17:35:11.562Z,100329.72
2023-02-23T17:37:15.958Z,100322.06
2023-02-23T17:39:19.214Z,100326.47
2023-02-23T17:41:22.686Z,100331.34
2023-02-23T17:43:26.064Z,100332.47
2023-02-23T17:45:29.556Z,100337.63
2023-02-23T17:47:33.886Z,100340.19
2023-02-23T17:49:37.052Z,100337.81
2023-02-23T17:51:40.260Z,100344.84
2023-02-23T17:53:44.683Z,100343.84
2023-02-23T17:55:48.478Z,100339.94
2023-02-23T17:57:51.699Z,100345.72
2023-02-23T17:59:54.706Z,100348.44
2023-02-23T18:01:59.497Z,100352.81
2023-02-23T18:04:02.827Z,100348.50
2023-02-23T18:06:07.405Z,100351.47
2023-02-23T18:08:10.481Z,100353.97
2023-02-23T18:10:17.229Z,100355.06
2023-02-23T18:12:20.969Z,100353.16
2023-02-23T18:14:23.849Z,100353.78
2023-02-23T18:16:27.319Z,100357.47
2023-02-23T18:18:30.512Z,100355.81
2023-02-23T18:20:33.721Z,100353.16
2023-02-23T18:22:37.053Z,100349.72
2023-02-23T18:24:41.475Z,100358.38
2023-02-23T18:26:47.636Z,100347.91
2023-02-23T18:28:51.392Z,100356.59
2023-02-23T18:30:54.506Z,100349.03
2023-02-23T18:33:04.217Z,100349.97
2023-02-23T18:35:08.297Z,100341.94
2023-02-23T18:37:11.355Z,100349.72
2023-02-23T18:39:14.704Z,100349.72
2023-02-23T18:41:18.336Z,100352.72
2023-02-23T18:43:22.759Z,100351.66
2023-02-23T18:45:25.761Z,100349.53
2023-02-23T18:47:29.920Z,100357.16
2023-02-23T18:49:33.076Z,100357.06
2023-02-23T18:51:36.218Z,100354.31
2023-02-23T18:53:39.709Z,100355.31
2023-02-23T18:55:44.791Z,100364.00
2023-02-23T18:57:48.002Z,100361.31
2023-02-23T18:59:52.686Z,100355.13
2023-02-23T19:01:55.755Z,100362.06
2023-02-23T19:04:01.599Z,100354.63
2023-02-23T19:06:09.024Z,100358.75
2023-02-23T19:08:15.981Z,100355.41
2023-02-23T19:10:19.486Z,100349.09
2023-02-23T19:12:22.472Z,100350.31
2023-02-23T19:14:46.324Z,100355.41
2023-02-23T19:16:50.736Z,100363.09
2023-02-23T19:18:53.762Z,100352.47
2023-02-23T19:20:56.964Z,100357.06
2023-02-23T19:23:00.084Z,100341.94
2023-02-23T19:25:03.624Z,100352.53
2023-02-23T19:27:09.997Z,100346.41
2023-02-23T19:29:13.346Z,100344.50
2023-02-23T19:31:20.749Z,100347.47
2023-02-23T19:33:28.008Z,100349.91
2023-02-23T19:35:33.306Z,100346.34
2023-02-23T19:37:36.358Z,100343.81
2023-02-23T19:39:39.640Z,100339.56
2023-02-23T19:41:44.644Z,100341.56
2023-02-23T19:43:49.461Z,100332.75
2023-02-23T19:45:52.926Z,100333.31
2023-02-23T19:47:56.664Z,100326.06
2023-02-23T19:50:01.216Z,100329.69
2023-02-23T19:52:04.879Z,100327.94
2023-02-23T19:54:07.982Z,100327.69
2023-02-23T19:56:13.704Z,100335.59
2023-02-23T19:58:17.888Z,100333.72
2023-02-23T20:00:21.281Z,100337.34
2023-02-23T20:02:24.710Z,100330.22
2023-02-23T20:04:28.538Z,100330.78
2023-02-23T20:06:36.265Z,100340.03
2023-02-23T20:08:39.185Z,100335.38
2023-02-23T20:10:42.825Z,100340.53
2023-02-23T20:12:46.378Z,100338.63
2023-02-23T20:14:49.805Z,100339.97
2023-02-23T20:16:54.225Z,100342.88
2023-02-23T20:18:57.700Z,100341.56
2023-02-23T20:21:01.196Z,100343.22
2023-02-23T20:23:07.779Z,100342.13
2023-02-23T20:25:16.062Z,100353.28
2023-02-23T20:27:23.255Z,100350.63
2023-02-23T20:29:28.118Z,100357.66
2023-02-23T20:31:37.202Z,100359.22
2023-02-23T20:33:40.380Z,100360.25
2023-02-23T20:35:46.418Z,100361.72
2023-02-23T20:37:49.917Z,100354.69
2023-02-23T20:39:54.311Z,100352.06
2023-02-23T20:41:57.343Z,100355.78
2023-02-23T20:44:01.169Z,100350.25
2023-02-23T20:46:04.854Z,100346.06
2023-02-23T20:48:09.586Z,100348.44
2023-02-23T20:50:16.098Z,100352.78
2023-02-23T20:52:19.184Z,100349.00
2023-02-23T20:54:22.682Z,100347.94
2023-02-23T20:56:32.932Z,100348.69
2023-02-23T20:58:36.082Z,100344.94
2023-02-23T21:00:40.106Z,100338.72
2023-02-23T21:02:43.144Z,100341.34
2023-02-23T21:04:46.377Z,100336.13
2023-02-23T21:06:49.369Z,100331.81
2023-02-23T21:08:56.028Z,100333.63
2023-02-23T21:10:59.272Z,100330.94
2023-02-23T21:13:04.124Z,100330.94
2023-02-23T21:15:09.324Z,100323.03
2023-02-23T21:17:12.384Z,100324.72
2023-02-23T21:19:17.110Z,100326.50
2023-02-23T21:21:20.299Z,100323.09
2023-02-23T21:23:23.751Z,100320.78
2023-02-23T21:25:28.245Z,100319.78
2023-02-23T21:27:32.309Z,100317.81
2023-02-23T21:29:44.815Z,100317.84
2023-02-23T21:31:48.422Z,100322.09
2023-02-23T21:33:51.468Z,100319.72
2023-02-23T21:35:59.118Z,100325.47
2023-02-23T21:38:02.283Z,100326.69
2023-02-23T21:40:09.354Z,100326.88
2023-02-23T21:42:12.359Z,100322.59
2023-02-23T21:44:15.234Z,100332.00
2023-02-23T21:46:21.571Z,100324.28
2023-02-23T21:48:33.399Z,100326.47
2023-02-23T21:50:36.392Z,100329.03
2023-02-23T21:52:39.388Z,100332.03
2023-02-23T21:54:46.659Z,100325.97
2023-02-23T21:56:50.112Z,100328.66
2023-02-23T21:58:54.871Z,100337.16
2023-02-23T22:00:58.350Z,100336.16
2023-02-23T22:03:03.482Z,100331.75
2023-02-23T22:05:07.625Z,100331.97
2023-02-23T22:07:10.717Z,100331.84
2023-02-23T22:09:15.460Z,100332.56
2023-02-23T22:11:20.486Z,100327.09
2023-02-23T22:13:23.665Z,100321.88
2023-02-23T22:15:28.292Z,100326.44
2023-02-23T22:17:32.831Z,100329.34
2023-02-23T22:19:37.447Z,100330.22
2023-02-23T22:21:42.127Z,100322.06
2023-02-23T22:23:47.945Z,100322.44
2023-02-23T22:25:51.248Z,100318.91
2023-02-23T22:27:54.129Z,100326.41
2023-02-23T22:29:59.909Z,100313.84
2023-02-23T22:32:02.975Z,100322.66
2023-02-23T22:34:07.303Z,100319.00
2023-02-23T22:36:14.930Z,100314.66
2023-02-23T22:38:19.751Z,100315.59
2023-02-23T22:40:23.138Z,100318.56
2023-02-23T22:42:29.542Z,100316.22
2023-02-23T22:44:32.482Z,100318.28
2023-02-23T22:46:38.886Z,100312.72
2023-02-23T22:48:44.925Z,100320.97
2023-02-23T22:50:48.157Z,100313.81
2023-02-23T22:52:53.536Z,100324.25
2023-02-23T22:54:57.696Z,100315.50
2023-02-23T22:57:00.836Z,100317.53
2023-02-23T22:59:10.821Z,100316.66
2023-02-23T23:01:14.759Z,100320.28
2023-02-23T23:03:18.921Z,100321.09
2023-02-23T23:05:22.917Z,100320.44
2023-02-23T23:07:26.472Z,100315.63
2023-02-23T23:09:33.299Z,100312.06
2023-02-23T23:11:37.341Z,100314.94
2023-02-23T23:13:44.717Z,100313.97
2023-02-23T23:15:49.347Z,100316.56
2023-02-23T23:17:53.849Z,100315.19
2023-02-23T23:19:56.789Z,100314.56
2023-02-23T23:22:00.581Z,100312.53
2023-02-23T23:24:06.223Z,100316.81
2023-02-23T23:26:14.719Z,100310.63
2023-02-23T23:28:19.073Z,100313.47
2023-02-23T23:30:25.956Z,100302.09
2023-02-23T23:32:30.334Z,100309.06
2023-02-23T23:34:33.712Z,100304.50
2023-02-23T23:36:43.018Z,100298.25
2023-02-23T23:38:46.085Z,100300.84
2023-02-23T23:40:49.427Z,100298.31
2023-02-23T23:42:55.818Z,100300.88
2023-02-23T23:44:58.890Z,100297.38
2023-02-23T23:47:05.329Z,100298.25
2023-02-23T23:49:11.291Z,100297.75
2023-02-23T23:51:15.173Z,100292.25
2023-02-23T23:53:19.808Z,100288.16
2023-02-23T23:55:22.832Z,100292.53
2023-02-23T23:57:26.083Z,100284.91
2023-02-23T23:59:31.903Z,100281.50
